Latest Weather Observations for Point Cook

IDV60901

Issued at 2:01 pm EST Thursday 25 April 2024 (issued every 10 minutes, with the page automatically refreshed every 10 minutes)

About weather observations | Map of Melbourne area stations | Latest observations for Melbourne area | Other Formats
Station Details ID: 087185 Name: POINT COOK RAAF Lat: -37.93 Lon: 144.76 Height: 3.13 m
Data from the previous 72 hours. | See also: Recent months for locations in Victoria
Date/Time
EST
Temp
°C
App
Temp
°C
Dew
Point
°C
Rel
Hum
%
Delta-T
°C
Wind Press
QNH
hPa
Press
MSL
hPa
Rain since
9am
mm
Dir  Spd
km/h
Gust
km/h
Spd
kts
Gust
kts
25/02:00pm 15.3 9.8 7.6 60 3.8 SW 26 32 14 17 1024.4 1024.4 0.0
25/01:30pm 15.8 12.1 8.1 60 3.9 WSW 17 24 9 13 1024.4 1024.4 0.0
25/01:00pm 14.0 11.0 9.4 74 2.3 SW 15 24 8 13 1024.6 1024.6 0.0
25/12:30pm 15.4 10.7 7.9 61 3.8 WSW 22 30 12 16 1024.7 1024.7 0.0
25/12:00pm 15.5 11.3 7.3 58 4.0 WSW 19 28 10 15 1024.7 1024.7 0.0
25/11:30am 15.2 10.9 7.7 61 3.7 WSW 20 30 11 16 1025.0 1025.0 0.0
25/11:00am 15.1 9.3 7.9 62 3.6 WSW 28 35 15 19 1025.0 1025.0 0.0
25/10:30am 14.7 10.1 8.0 64 3.3 WSW 22 30 12 16 1025.0 1025.0 0.0
25/10:00am 14.8 10.9 9.6 71 2.7 W 20 32 11 17 1024.8 1024.8 0.0
25/09:30am 13.5 9.1 9.0 74 2.3 WSW 22 33 12 18 1024.8 1024.8 0.0
25/09:00am 12.9 9.8 9.0 77 2.0 WSW 15 20 8 11 1024.7 1024.7 0.0
25/08:30am 12.1 8.3 9.1 82 1.5 W 19 26 10 14 1024.4 1024.4 0.0
25/08:00am 11.4 8.0 9.1 86 1.1 W 17 24 9 13 1024.1 1024.1 0.0
25/07:30am 11.1 8.0 9.0 87 1.0 W 15 20 8 11 1023.7 1023.7 0.0
25/07:00am 10.3 7.5 8.7 90 0.8 WNW 13 20 7 11 1023.4 1023.4 0.0
25/06:30am 9.9 7.0 8.2 89 0.8 WNW 13 19 7 10 1023.1 1023.1 0.0
25/06:00am 10.4 6.8 8.5 88 0.9 W 17 24 9 13 1023.0 1023.0 0.0
25/05:30am 10.3 6.7 8.4 88 0.9 WNW 17 24 9 13 1022.9 1022.9 0.0
25/05:00am 10.5 7.0 8.6 88 0.9 WNW 17 24 9 13 1022.9 1022.9 0.0
25/04:30am 10.6 7.4 8.5 87 1.0 WNW 15 22 8 12 1022.7 1022.7 0.0
25/04:00am 11.1 7.0 8.7 85 1.2 W 20 30 11 16 1022.7 1022.7 0.0
25/03:30am 10.7 8.3 8.6 87 1.0 WNW 11 15 6 8 1022.9 1022.9 0.0
25/03:00am 9.0 6.7 7.3 89 0.8 NW 9 13 5 7 1022.9 1022.9 0.0
25/02:30am 9.0 5.8 7.0 87 0.9 NW 13 17 7 9 1023.0 1023.0 0.0
25/02:00am 8.5 6.0 6.6 88 0.9 NNW 9 11 5 6 1023.4 1023.4 0.0
25/01:30am 9.0 6.6 7.0 87 0.9 NW 9 13 5 7 1023.5 1023.5 0.0
25/01:00am 9.7 7.0 7.5 86 1.0 NW 11 13 6 7 1023.5 1023.5 0.0
25/12:30am 9.7 7.4 7.6 87 1.0 NW 9 13 5 7 1023.8 1023.8 0.0
25/12:00am 8.8 6.8 6.9 88 0.9 NNW 7 9 4 5 1023.9 1023.9 0.0
 
Date/Time
EST
Temp
°C
App
Temp
°C
Dew
Point
°C
Rel
Hum
%
Delta-T
°C
Wind Press
QNH
hPa
Press
MSL
hPa
Rain since
9am
mm
Dir  Spd
km/h
Gust
km/h
Spd
kts
Gust
kts
24/11:30pm 8.3 5.8 6.4 88 0.9 NNW 9 13 5 7 1024.0 1024.0 0.0
24/11:00pm 8.4 5.8 6.2 86 1.0 NW 9 11 5 6 1024.2 1024.2 0.0
24/10:30pm 9.0 6.4 6.1 82 1.3 NW 9 13 5 7 1024.4 1024.4 0.0
24/10:00pm 9.1 6.4 5.7 79 1.5 WNW 9 11 5 6 1024.5 1024.5 0.0
24/09:30pm 10.3 7.0 6.3 76 1.9 WNW 13 17 7 9 1024.4 1024.4 0.0
24/09:00pm 11.0 7.6 6.0 71 2.3 W 13 15 7 8 1024.4 1024.4 0.0
24/08:30pm 11.7 7.9 6.0 68 2.7 W 15 19 8 10 1024.2 1024.2 0.0
24/08:00pm 12.0 9.5 6.5 69 2.6 W 9 13 5 7 1024.1 1024.1 0.0
24/07:30pm 12.7 9.0 6.1 64 3.1 W 15 20 8 11 1024.0 1024.0 0.0
24/07:00pm 12.8 9.5 6.4 65 3.0 W 13 19 7 10 1023.9 1023.9 0.0
24/06:30pm 13.0 8.3 5.9 62 3.3 W 20 30 11 16 1023.7 1023.7 0.0
24/06:00pm 12.7 8.4 5.1 60 3.5 WSW 17 24 9 13 1023.2 1023.2 0.0
24/05:30pm 13.4 8.4 4.6 55 4.0 WSW 20 26 11 14 1022.9 1022.9 0.0
24/05:00pm 14.7 10.0 6.0 56 4.1 SW 20 28 11 15 1022.8 1022.8 0.0
24/04:30pm 14.9 10.1 5.7 54 4.4 SW 20 28 11 15 1022.6 1022.6 0.0
24/04:00pm 15.4 12.3 7.2 58 4.0 WSW 13 20 7 11 1022.6 1022.6 0.0
24/03:30pm 14.7 10.2 6.8 59 3.8 SW 20 26 11 14 1022.6 1022.6 0.0
24/03:00pm 14.9 10.0 6.7 58 4.0 SW 22 30 12 16 1022.5 1022.5 0.0
24/02:30pm 15.5 11.3 7.3 58 4.1 SW 19 26 10 14 1022.4 1022.4 0.0
24/02:00pm 15.3 10.6 6.1 54 4.4 SW 20 24 11 13 1022.3 1022.3 0.0
24/01:30pm 15.5 10.2 6.8 56 4.3 SW 24 30 13 16 1022.4 1022.4 0.0
24/01:00pm 15.1 9.2 7.4 60 3.8 SW 28 35 15 19 1022.6 1022.6 0.0
24/12:30pm 13.1 6.8 7.5 69 2.7 SSW 30 41 16 22 1023.0 1023.0 0.0
24/12:00pm 15.1 10.3 7.2 59 3.9 WSW 22 32 12 17 1022.9 1022.9 0.0
24/11:30am 14.4 9.8 6.7 60 3.7 WSW 20 28 11 15 1023.0 1023.0 0.0
24/11:00am 14.9 9.4 7.7 62 3.6 WSW 26 37 14 20 1022.7 1022.7 0.0
24/10:30am 13.7 7.7 7.2 65 3.2 SW 28 37 15 20 1022.7 1022.7 0.0
24/10:00am 14.0 9.7 7.8 66 3.1 W 20 28 11 15 1022.2 1022.2 0.0
24/09:30am 13.2 9.6 8.3 72 2.4 WSW 17 24 9 13 1022.2 1022.2 0.0
24/09:00am 12.2 9.0 8.5 78 1.8 W 15 20 8 11 1022.1 1022.1 5.6
24/08:30am 10.8 6.7 8.0 83 1.4 W 19 24 10 13 1021.9 1021.9 5.6
24/08:00am 10.0 7.0 7.9 87 1.0 W 13 19 7 10 1021.4 1021.4 5.6
24/07:30am 9.8 6.1 7.9 88 0.9 W 17 22 9 12 1021.1 1021.1 5.6
24/07:00am 10.9 5.5 7.8 81 1.5 SW 26 33 14 18 1020.3 1020.3 5.6
24/06:30am 10.0 3.5 8.3 89 0.8 WSW 32 54 17 29 1020.0 1020.0 5.6
24/06:24am 10.2 4.4 8.1 87 1.0 WSW 28 54 15 29 1019.9 1019.9 5.6
24/06:00am 10.0 5.9 7.8 86 1.1 W 19 28 10 15 1019.2 1019.2 5.6
24/05:30am 10.3 6.0 7.7 84 1.2 W 20 28 11 15 1018.9 1018.9 5.6
24/05:00am 10.4 5.3 7.8 84 1.2 W 24 37 13 20 1018.4 1018.4 5.6
24/04:30am 10.3 6.5 7.7 84 1.2 WNW 17 28 9 15 1018.1 1018.1 5.6
24/04:00am 10.0 6.2 7.6 85 1.1 WNW 17 26 9 14 1017.5 1017.5 5.6
24/03:30am 10.0 5.6 7.6 85 1.1 WNW 20 28 11 15 1017.0 1017.0 5.6
24/03:00am 10.2 5.5 7.8 85 1.2 WNW 22 30 12 16 1016.8 1016.8 5.6
24/02:30am 10.1 6.3 7.7 85 1.2 WNW 17 26 9 14 1016.8 1016.8 5.6
24/02:00am 10.5 5.8 7.9 84 1.3 WNW 22 32 12 17 1016.6 1016.6 5.6
24/01:30am 10.6 7.1 8.9 89 0.8 NW 17 20 9 11 1016.3 1016.3 5.6
24/01:00am 10.7 6.8 8.8 88 0.9 WNW 19 26 10 14 1016.0 1016.0 5.4
24/12:30am 10.7 6.3 8.8 88 0.9 WNW 22 33 12 18 1015.9 1015.9 5.0
24/12:00am 11.0 3.7 8.8 86 1.1 W 37 54 20 29 1015.3 1015.3 4.0
 
Date/Time
EST
Temp
°C
App
Temp
°C
Dew
Point
°C
Rel
Hum
%
Delta-T
°C
Wind Press
QNH
hPa
Press
MSL
hPa
Rain since
9am
mm
Dir  Spd
km/h
Gust
km/h
Spd
kts
Gust
kts
23/11:30pm 11.6 4.2 9.7 88 1.0 W 39 56 21 30 1015.0 1015.0 3.4
23/11:00pm 12.5 4.9 10.6 88 1.0 W 41 54 22 29 1014.5 1014.5 2.4
23/10:52pm 12.9 4.9 11.1 89 0.9 W 44 63 24 34 1014.0 1014.0 2.4
23/10:46pm 13.5 6.6 11.6 88 1.0 W 39 63 21 34 1013.8 1013.8 2.2
23/10:42pm 14.4 9.2 12.8 90 0.9 W 32 54 17 29 1013.8 1013.8 2.0
23/10:40pm 14.6 10.2 13.0 90 0.9 W 28 43 15 23 1013.7 1013.7 1.8
23/10:30pm 14.8 10.8 13.0 89 1.0 W 26 37 14 20 1013.8 1013.8 0.8
23/10:00pm 15.4 11.9 12.3 82 1.7 W 22 32 12 17 1013.4 1013.4 0.0
23/09:30pm 16.4 12.5 10.7 69 3.0 W 22 32 12 17 1012.8 1012.8 0.0
23/09:00pm 17.9 14.1 9.0 56 4.6 W 19 26 10 14 1012.4 1012.4 0.0
23/08:30pm 21.8 16.8 4.8 33 8.4 NNW 20 33 11 18 1011.0 1011.0 0.0
23/08:00pm 21.7 15.0 5.6 35 8.0 N 30 41 16 22 1010.0 1010.0 0.0
23/07:30pm 21.7 15.8 5.6 35 8.0 N 26 33 14 18 1010.4 1010.4 0.0
23/07:00pm 21.9 16.5 6.2 36 7.9 N 24 32 13 17 1010.8 1010.8 0.0
23/06:30pm 22.3 17.6 6.1 35 8.2 NNE 20 30 11 16 1011.2 1011.2 0.0
23/06:00pm 22.8 18.2 5.7 33 8.6 NNE 19 24 10 13 1011.5 1011.5 0.0
23/05:30pm 23.1 18.7 6.4 34 8.5 NNE 19 26 10 14 1011.8 1011.8 0.0
23/05:00pm 23.6 18.6 6.4 33 8.8 N 22 33 12 18 1012.1 1012.1 0.0
23/04:30pm 24.0 19.1 6.7 33 8.9 N 22 35 12 19 1012.4 1012.4 0.0
23/04:00pm 24.2 18.1 6.5 32 9.1 N 28 39 15 21 1012.9 1012.9 0.0
23/03:30pm 24.4 16.9 6.2 31 9.3 N 35 52 19 28 1013.3 1013.3 0.0
23/03:22pm 24.6 17.7 6.4 31 9.4 N 32 52 17 28 1013.4 1013.4 0.0
23/03:00pm 25.2 18.8 6.9 31 9.6 N 30 46 16 25 1013.5 1013.5 0.0
23/02:30pm 25.4 18.2 6.1 29 10.0 N 33 46 18 25 1013.8 1013.8 0.0
23/02:00pm 26.0 19.9 6.6 29 10.1 N 28 43 15 23 1014.2 1014.2 0.0
23/01:30pm 25.5 19.3 6.2 29 10.0 N 28 39 15 21 1014.9 1014.9 0.0
23/01:00pm 25.7 19.5 6.3 29 10.0 NNW 28 48 15 26 1015.7 1015.7 0.0
23/12:57pm 25.5 19.3 6.2 29 10.0 NNW 28 48 15 26 1015.6 1015.6 0.0
23/12:30pm 24.8 18.8 7.0 32 9.3 N 28 39 15 21 1016.7 1016.7 0.0
23/12:00pm 24.7 18.8 7.4 33 9.1 N 28 39 15 21 1017.4 1017.4 0.0
23/11:30am 23.1 16.8 7.6 37 8.1 NNE 30 43 16 23 1017.9 1017.9 0.0
23/11:00am 23.3 16.4 6.6 34 8.6 N 32 39 17 21 1018.5 1018.5 0.0
23/10:30am 22.5 18.2 7.1 37 7.9 N 19 30 10 16 1019.2 1019.2 0.0
23/10:00am 20.5 16.6 7.2 42 6.8 NNE 17 24 9 13 1019.8 1019.8 0.0
23/09:30am 19.3 17.1 7.7 47 5.9 NNE 9 15 5 8 1020.3 1020.3 0.0
23/09:00am 17.3 15.2 6.8 50 5.2 NNE 7 9 4 5 1020.5 1020.5 0.0
23/08:30am 15.4 13.6 7.2 58 4.0 NE 6 9 3 5 1020.7 1020.7 0.0
23/08:00am 12.6 10.1 6.6 67 2.9 NE 9 11 5 6 1020.4 1020.4 0.0
23/07:30am 11.0 8.8 5.5 69 2.5 NE 6 7 3 4 1020.2 1020.2 0.0
23/07:00am 9.4 8.2 4.4 71 2.2 CALM 0 0 0 0 1020.2 1020.2 0.0
23/06:30am 9.2 7.7 3.2 66 2.6 CALM 0 2 0 1 1020.1 1020.1 0.0
23/06:00am 11.1 8.8 4.6 64 2.9 NE 6 7 3 4 1019.7 1019.7 0.0
23/05:30am 11.2 8.1 5.5 68 2.6 NNE 11 13 6 7 1019.7 1019.7 0.0
23/05:00am 11.2 9.0 6.3 72 2.3 E 7 9 4 5 1019.9 1019.9 0.0
23/04:30am 10.4 8.3 6.5 77 1.8 E 7 9 4 5 1020.0 1020.0 0.0
23/04:00am 12.5 11.0 5.0 60 3.4 ESE 2 6 1 3 1020.0 1020.0 0.0
23/03:30am 9.2 8.1 5.0 75 1.9 CALM 0 0 0 0 1020.0 1020.0 0.0
23/03:00am 10.5 9.4 5.3 70 2.4 CALM 0 2 0 1 1020.2 1020.2 0.0
23/02:30am 12.6 9.9 5.8 63 3.2 NNE 9 13 5 7 1020.3 1020.3 0.0
23/02:00am 10.6 8.1 6.6 76 1.9 NNE 9 15 5 8 1020.6 1020.6 0.0
23/01:30am 10.6 8.3 5.8 72 2.2 NNE 7 9 4 5 1020.9 1020.9 0.0
23/01:00am 10.9 8.8 6.5 74 2.1 NNE 7 9 4 5 1021.0 1021.0 0.0
23/12:30am 10.2 8.7 5.0 70 2.3 N 2 2 1 1 1021.4 1021.4 0.0
23/12:00am 10.6 8.3 5.6 71 2.3 N 7 9 4 5 1021.7 1021.7 0.0
 
Date/Time
EST
Temp
°C
App
Temp
°C
Dew
Point
°C
Rel
Hum
%
Delta-T
°C
Wind Press
QNH
hPa
Press
MSL
hPa
Rain since
9am
mm
Dir  Spd
km/h
Gust
km/h
Spd
kts
Gust
kts
22/11:30pm 10.7 7.6 5.5 70 2.4 N 11 13 6 7 1021.9 1021.9 0.0
22/11:00pm 11.2 8.6 5.9 70 2.5 N 9 9 5 5 1022.0 1022.0 0.0
22/10:30pm 11.9 9.7 6.2 68 2.7 N 7 9 4 5 1022.3 1022.3 0.0
22/10:00pm 12.8 10.0 6.8 67 2.9 N 11 11 6 6 1022.4 1022.4 0.0
22/09:30pm 13.6 10.4 6.7 63 3.3 N 13 15 7 8 1022.5 1022.5 0.0
22/09:00pm 13.4 10.5 8.0 70 2.7 N 13 15 7 8 1022.4 1022.4 0.0
22/08:30pm 13.2 10.8 8.7 74 2.3 N 11 15 6 8 1022.4 1022.4 0.0
22/08:00pm 13.2 11.7 9.1 76 2.1 N 7 11 4 6 1022.5 1022.5 0.0
22/07:30pm 13.4 12.1 10.0 80 1.8 N 7 9 4 5 1022.6 1022.6 0.0
22/07:00pm 14.7 13.9 10.9 78 2.0 SSE 6 7 3 4 1022.6 1022.6 0.0
22/06:30pm 14.3 14.6 10.9 80 1.8 CALM 0 0 0 0 1022.6 1022.6 0.0
22/06:00pm 14.8 15.1 10.8 77 2.1 CALM 0 0 0 0 1022.5 1022.5 0.0
22/05:30pm 17.0 17.6 11.9 72 2.8 CALM 0 0 0 0 1022.4 1022.4 0.0
22/05:00pm 17.6 17.5 12.1 70 3.0 SSE 4 6 2 3 1022.4 1022.4 0.0
22/04:30pm 18.4 17.5 11.5 64 3.8 SE 7 11 4 6 1022.4 1022.4 0.0
22/04:00pm 18.6 16.8 10.7 60 4.2 SSE 11 13 6 7 1022.6 1022.6 0.0
22/03:30pm 19.0 16.6 11.3 61 4.2 SSE 15 20 8 11 1022.9 1022.9 0.0
22/03:00pm 19.1 16.8 11.9 63 4.0 SSE 15 19 8 10 1023.0 1023.0 0.0
22/02:30pm 19.5 16.8 10.2 55 5.0 SSE 15 17 8 9 1023.0 1023.0 0.0

Latest Capital City Observations: Canberra | Sydney | Melbourne | Brisbane | Adelaide | Perth | Hobart | Darwin

Other formats

Comma delimited format used in spreadsheet applications
http://www.bom.gov.au/fwo/IDV60901/IDV60901.95941.axf

JavaScript Object Notation format (JSON) in row-major order
http://www.bom.gov.au/fwo/IDV60901/IDV60901.95941.json

Data quality

Most of these data are generated automatically and are frequently updated. Quality checks on data are not normally performed. It is possible for incorrect values to appear. Refer to information at About Latest Weather Observations and please check the disclaimer before using these data.